EYKA/KUN METAR and TAF weather

Enter ICAO airport designator
Station Type Date Time Source
EYKA METAR 2018/07/20 14:20 UTC NOAA

EYKA 201420Z VRB05KT 9999 -SHRA SCT047CB BKN064 25/16 Q1006


Station Type Date Time Source
EYKA Decoded METAR 2018/07/20 14:20 UTC NOAA

Kaunas, Lithuania (EYKA) 54-54N 023-55-12E
Jul 20, 2018 - 10:20 AM EDT / 2018.07.20 1420 UTC
Wind: Variable at 6 MPH (5 KT):0
Visibility: greater than 7 mile(s):0
Sky conditions: mostly cloudy
Weather: light rain showers; Cumulonimbus clouds observed
Temperature: 77 F (25 C)
Dew Point: 60 F (16 C)
Relative Humidity: 57%
Pressure (altimeter): 29.71 in. Hg (1006 hPa)
ob: EYKA 201420Z VRB05KT 9999 -SHRA SCT047CB BKN064 25/16 Q1006
cycle: 14

Station Type Date Time Source
EYKA TAF 2018/07/20 12:09 UTC NOAA

TAF TAF EYKA 201100Z 2012/2112 31010KT 9000 BKN025
TEMPO 2012/2019 30020KT 2000 TSRA BKN007 BKN020CB
BECMG 2019/2020 3000 BR BKN005
TEMPO 2020/2106 1500 MIFG


Example: see airport list